Frontier Kotobuki — 3EXC5 — position and weather

sailwx.info

Track history (hours):
 
Tides and Currents Weather Stations Pressure Air Temp Water Temp Dewpoint Dewpoint Depression Visibility Wind Speed Wind Dir Waves Ship Positions

Frontier Kotobuki

Last reported at 2017-May-22 06:12 UTC. Time now 2017-May-23 20:44 UTC.
Position N 31°32' E 032°12'.

Length 290 m; draft 17.9 m.

Type: Cargo ship. MMSI: 355036000.

Date/timePositionNaut miles runAvg speedWind from/ knotsBaromVisibWave heightAir tempDewpointWater temp
2017-May-22 06:12N 31°32' E 032°12'1 7.8
2017-May-22 06:00N 31°33' E 032°11'8 9.9
2017-May-22 05:13N 31°39' E 032°04'2 9.8
2017-May-22 05:00N 31°40' E 032°03'5 9.9
2017-May-22 04:30N 31°44' E 031°59'710.5
2017-May-22 03:50N 31°49' E 031°53'310.8
2017-May-22 03:30N 31°51' E 031°50'6010.8
2017-May-21 21:59N 32°36' E 031°03'381 9.8
2017-May-20 07:09N 37°21' E 025°55'1 9.4
2017-May-20 07:00N 37°22' E 025°54'5 9.2
2017-May-20 06:30N 37°26' E 025°51'4 9.1
2017-May-20 06:00N 37°30' E 025°48'5 9.2
2017-May-20 05:30N 37°34' E 025°46'5 9.2
2017-May-20 05:00N 37°38' E 025°43'5 9.3
2017-May-20 04:30N 37°43' E 025°41'5 9.4
2017-May-20 04:00N 37°47' E 025°38'5 9.5
2017-May-20 03:30N 37°51' E 025°36'228 5.4
2017-May-18 09:44N 40°53' E 028°33'2 7.3
2017-May-18 09:27N 40°53' E 028°36'9 6.9
2017-May-18 08:13N 40°54' E 028°47'2 6.9
2017-May-18 07:57N 40°55' E 028°50'4 7.4
2017-May-18 07:26N 40°56' E 028°54'4 7.8
2017-May-18 06:57N 40°58' E 028°58'327 7.2
2017-May-16 09:42N 46°14' E 030°55'2 9.1
2017-May-16 09:30N 46°16' E 030°54'610.6
2017-May-16 08:59N 46°22' E 030°55'510.3
2017-May-16 08:29N 46°27' E 030°55'4 8.3
2017-May-16 08:00N 46°31' E 030°55'3 6.1
2017-May-16 07:30N 46°33' E 030°58'3 5.8
2017-May-16 06:59N 46°35' E 031°01'  
2017-May-12 19:45N 46°37' E 031°02'0 0.0
2017-May-12 19:15N 46°37' E 031°02'0 0.0
2017-May-12 18:51N 46°37' E 031°02'0 0.0
2017-May-12 18:03N 46°37' E 031°02'0 0.0
2017-May-12 17:57N 46°37' E 031°02'0 0.0
2017-May-12 17:21N 46°37' E 031°02'0 0.0
2017-May-12 16:57N 46°37' E 031°02'0 0.0
2017-May-12 15:33N 46°37' E 031°02'0 0.1
2017-May-12 15:27N 46°37' E 031°02'0 0.0
2017-May-12 14:57N 46°37' E 031°02'  
Track history (hours):
 
Tides and Currents Weather Stations Pressure Air Temp Water Temp Dewpoint Dewpoint Depression Visibility Wind Speed Wind Dir Waves Ship Positions

Frontier Kotobuki

Last reported at 2017-May-22 06:12 UTC. Time now 2017-May-23 20:44 UTC.
Position N 31°32' E 032°12'.

Length 290 m; draft 17.9 m.

Type: Cargo ship. MMSI: 355036000.

Date/timePositionNaut miles runAvg speedWind from/ knotsBaromVisibWave heightAir tempDewpointWater temp
2017-May-22 06:12N 31°32' E 032°12'1 7.8
2017-May-22 06:00N 31°33' E 032°11'8 9.9
2017-May-22 05:13N 31°39' E 032°04'2 9.8
2017-May-22 05:00N 31°40' E 032°03'5 9.9
2017-May-22 04:30N 31°44' E 031°59'710.5
2017-May-22 03:50N 31°49' E 031°53'310.8
2017-May-22 03:30N 31°51' E 031°50'6010.8
2017-May-21 21:59N 32°36' E 031°03'381 9.8
2017-May-20 07:09N 37°21' E 025°55'1 9.4
2017-May-20 07:00N 37°22' E 025°54'5 9.2
2017-May-20 06:30N 37°26' E 025°51'4 9.1
2017-May-20 06:00N 37°30' E 025°48'5 9.2
2017-May-20 05:30N 37°34' E 025°46'5 9.2
2017-May-20 05:00N 37°38' E 025°43'5 9.3
2017-May-20 04:30N 37°43' E 025°41'5 9.4
2017-May-20 04:00N 37°47' E 025°38'5 9.5
2017-May-20 03:30N 37°51' E 025°36'228 5.4
2017-May-18 09:44N 40°53' E 028°33'2 7.3
2017-May-18 09:27N 40°53' E 028°36'9 6.9
2017-May-18 08:13N 40°54' E 028°47'2 6.9
2017-May-18 07:57N 40°55' E 028°50'4 7.4
2017-May-18 07:26N 40°56' E 028°54'4 7.8
2017-May-18 06:57N 40°58' E 028°58'327 7.2
2017-May-16 09:42N 46°14' E 030°55'2 9.1
2017-May-16 09:30N 46°16' E 030°54'610.6
2017-May-16 08:59N 46°22' E 030°55'510.3
2017-May-16 08:29N 46°27' E 030°55'4 8.3
2017-May-16 08:00N 46°31' E 030°55'3 6.1
2017-May-16 07:30N 46°33' E 030°58'3 5.8
2017-May-16 06:59N 46°35' E 031°01'  
2017-May-12 19:45N 46°37' E 031°02'0 0.0
2017-May-12 19:15N 46°37' E 031°02'0 0.0
2017-May-12 18:51N 46°37' E 031°02'0 0.0
2017-May-12 18:03N 46°37' E 031°02'0 0.0
2017-May-12 17:57N 46°37' E 031°02'0 0.0
2017-May-12 17:21N 46°37' E 031°02'0 0.0
2017-May-12 16:57N 46°37' E 031°02'0 0.0
2017-May-12 15:33N 46°37' E 031°02'0 0.1
2017-May-12 15:27N 46°37' E 031°02'0 0.0
2017-May-12 14:57N 46°37' E 031°02'  

Dump ship's entire track history